createdAt,value
2023-04-15T00:05:36.083Z,8.01
2023-04-15T00:11:30.492Z,8.21
2023-04-15T00:17:25.556Z,8.18
2023-04-15T00:24:13.578Z,7.84
2023-04-15T00:36:15.799Z,7.94
2023-04-15T00:42:50.371Z,7.93
2023-04-15T00:48:42.813Z,7.93
2023-04-15T00:55:37.545Z,7.99
2023-04-15T01:01:52.075Z,7.80
2023-04-15T01:07:43.498Z,7.65
2023-04-15T01:13:31.465Z,7.73
2023-04-15T01:19:23.932Z,7.81
2023-04-15T01:25:23.308Z,7.94
2023-04-15T01:31:13.789Z,7.89
2023-04-15T01:37:05.113Z,7.76
2023-04-15T01:42:51.877Z,7.69
2023-04-15T01:49:20.560Z,7.62
2023-04-15T01:55:16.612Z,7.57
2023-04-15T02:01:38.298Z,7.46
2023-04-15T02:07:26.396Z,7.56
2023-04-15T02:13:14.267Z,7.54
2023-04-15T02:19:01.497Z,7.45
2023-04-15T02:24:49.939Z,7.48
2023-04-15T02:30:55.878Z,7.40
2023-04-15T02:37:00.715Z,7.26
2023-04-15T02:43:00.497Z,7.31
2023-04-15T02:48:50.250Z,7.25
2023-04-15T02:54:39.575Z,7.19
2023-04-15T03:00:36.150Z,7.18
2023-04-15T03:06:27.217Z,7.39
2023-04-15T03:13:10.260Z,7.45
2023-04-15T03:19:07.918Z,7.21
2023-04-15T03:25:13.445Z,7.20
2023-04-15T03:31:18.112Z,7.16
2023-04-15T03:43:20.345Z,7.09
2023-04-15T03:49:14.665Z,7.23
2023-04-15T04:02:16.369Z,7.35
2023-04-15T04:08:18.523Z,7.25
2023-04-15T04:14:07.613Z,7.29
2023-04-15T04:21:13.705Z,7.33
2023-04-15T04:27:09.314Z,7.29
2023-04-15T04:32:56.241Z,7.52
2023-04-15T04:38:43.070Z,7.39
2023-04-15T04:44:29.869Z,7.38
2023-04-15T04:50:17.013Z,7.36
2023-04-15T04:56:06.670Z,7.29
2023-04-15T05:01:53.606Z,7.30
2023-04-15T05:07:45.552Z,7.36
2023-04-15T05:13:35.024Z,7.37
2023-04-15T05:19:24.624Z,7.39
2023-04-15T05:25:12.157Z,7.46
2023-04-15T05:30:59.760Z,7.55
2023-04-15T05:36:47.951Z,7.51
2023-04-15T05:42:38.422Z,7.47
2023-04-15T05:48:27.593Z,7.45
2023-04-15T05:54:20.439Z,7.51
2023-04-15T06:00:08.488Z,7.42
2023-04-15T06:06:03.845Z,7.40
2023-04-15T06:11:58.116Z,7.52
2023-04-15T06:17:45.791Z,7.67
2023-04-15T06:23:36.483Z,7.71
2023-04-15T06:29:23.953Z,7.67
2023-04-15T06:35:10.989Z,7.90
2023-04-15T06:41:07.970Z,7.99
2023-04-15T06:46:54.608Z,7.89
2023-04-15T06:52:41.675Z,8.09
2023-04-15T06:58:29.433Z,8.08
2023-04-15T07:04:16.394Z,8.06
2023-04-15T07:10:03.428Z,8.06
2023-04-15T07:15:50.577Z,8.24
2023-04-15T07:21:38.588Z,8.22
2023-04-15T07:27:27.304Z,8.07
2023-04-15T07:33:15.753Z,8.08
2023-04-15T07:39:04.306Z,8.12
2023-04-15T07:44:54.333Z,8.24
2023-04-15T07:50:41.225Z,8.31
2023-04-15T07:56:28.290Z,8.33
2023-04-15T08:02:17.149Z,8.42
2023-04-15T08:08:05.034Z,8.49
2023-04-15T08:13:53.702Z,8.66
2023-04-15T08:19:54.236Z,8.75
2023-04-15T08:25:43.450Z,9.13
2023-04-15T08:31:31.244Z,9.29
2023-04-15T08:37:18.961Z,9.52
2023-04-15T08:43:09.496Z,9.64
2023-04-15T08:48:58.030Z,9.86
2023-04-15T08:54:44.833Z,9.72
2023-04-15T09:00:34.097Z,9.96
2023-04-15T09:06:21.828Z,9.92
2023-04-15T09:13:41.239Z,9.62
2023-04-15T09:19:34.949Z,9.44
2023-04-15T09:25:21.630Z,9.65
2023-04-15T09:31:17.856Z,9.76
2023-04-15T09:37:31.532Z,9.77
2023-04-15T09:43:22.352Z,9.79
2023-04-15T09:49:10.436Z,10.00
2023-04-15T09:54:58.716Z,10.13
2023-04-15T10:00:48.258Z,10.22
2023-04-15T10:06:36.454Z,10.16
2023-04-15T10:12:23.891Z,10.11
2023-04-15T10:18:13.090Z,10.52
2023-04-15T10:24:04.024Z,10.95
2023-04-15T10:29:51.692Z,11.07
2023-04-15T10:35:39.738Z,10.89
2023-04-15T10:41:29.919Z,11.04
2023-04-15T10:47:21.633Z,10.82
2023-04-15T10:53:10.873Z,11.08
2023-04-15T10:59:01.353Z,11.14
2023-04-15T11:04:58.629Z,10.75
2023-04-15T11:10:46.514Z,10.74
2023-04-15T11:16:43.123Z,11.31
2023-04-15T11:22:29.939Z,11.85
2023-04-15T11:28:16.917Z,12.29
2023-04-15T11:34:06.588Z,12.66
2023-04-15T11:39:53.515Z,13.35
2023-04-15T11:46:00.438Z,12.49
2023-04-15T11:51:50.611Z,13.06
2023-04-15T11:57:38.916Z,13.07
2023-04-15T12:03:28.894Z,13.41
2023-04-15T12:09:16.909Z,13.09
2023-04-15T12:15:03.837Z,13.56
2023-04-15T12:20:50.811Z,13.90
2023-04-15T12:26:44.644Z,14.35
2023-04-15T12:32:35.793Z,14.53
2023-04-15T12:38:22.499Z,14.86
2023-04-15T12:44:12.108Z,14.27
2023-04-15T12:49:58.771Z,14.68
2023-04-15T12:55:45.774Z,14.70
2023-04-15T13:01:38.493Z,15.28
2023-04-15T13:07:28.369Z,15.17
2023-04-15T13:13:17.668Z,15.50
2023-04-15T13:19:07.442Z,15.42
2023-04-15T13:24:54.203Z,15.60
2023-04-15T13:30:41.718Z,15.97
2023-04-15T13:36:31.550Z,14.99
2023-04-15T13:42:18.419Z,15.44
2023-04-15T13:48:05.864Z,15.56
2023-04-15T13:53:52.656Z,15.20
2023-04-15T13:59:44.330Z,15.01
2023-04-15T14:05:31.294Z,15.07
2023-04-15T14:11:18.827Z,15.72
2023-04-15T14:17:06.031Z,15.49
2023-04-15T14:22:52.857Z,15.58
2023-04-15T14:28:39.695Z,15.13
2023-04-15T14:34:26.639Z,14.27
2023-04-15T14:40:14.787Z,13.84
2023-04-15T14:46:05.897Z,13.90
2023-04-15T14:51:58.932Z,14.47
2023-04-15T14:57:47.214Z,15.10
2023-04-15T15:03:35.528Z,14.69
2023-04-15T15:09:23.874Z,15.13
2023-04-15T15:15:25.043Z,15.60
2023-04-15T15:21:15.415Z,15.67
2023-04-15T15:27:03.132Z,16.35
2023-04-15T15:32:50.354Z,15.71
2023-04-15T15:50:57.785Z,14.68
2023-04-15T15:56:45.015Z,14.50
2023-04-15T16:02:59.856Z,14.80
2023-04-15T16:08:40.046Z,14.91
2023-04-15T16:14:29.601Z,15.20
2023-04-15T16:20:16.952Z,15.57
2023-04-15T16:26:03.935Z,15.52
2023-04-15T16:31:51.114Z,15.40
2023-04-15T16:37:46.568Z,15.05
2023-04-15T16:43:33.588Z,14.88
2023-04-15T16:49:20.762Z,14.80
2023-04-15T16:55:19.901Z,14.66
2023-04-15T17:01:07.063Z,14.65
2023-04-15T17:06:54.042Z,14.73
2023-04-15T17:12:40.862Z,14.68
2023-04-15T17:18:30.595Z,14.38
2023-04-15T17:24:18.393Z,14.64
2023-04-15T17:30:07.195Z,14.47
2023-04-15T17:35:53.966Z,14.38
2023-04-15T17:41:41.179Z,14.44
2023-04-15T17:47:28.497Z,14.32
2023-04-15T17:53:15.306Z,14.28
2023-04-15T17:59:02.637Z,14.02
2023-04-15T18:04:49.843Z,13.87
2023-04-15T18:10:41.633Z,13.71
2023-04-15T18:16:28.723Z,13.47
2023-04-15T18:22:19.434Z,13.31
2023-04-15T18:28:08.948Z,13.10
2023-04-15T18:33:58.164Z,12.99
2023-04-15T18:39:49.280Z,12.77
2023-04-15T18:45:43.083Z,12.93
2023-04-15T18:59:56.487Z,12.67
2023-04-15T19:05:43.157Z,12.97
2023-04-15T19:11:29.711Z,12.87
2023-04-15T19:17:16.589Z,13.15
2023-04-15T19:23:03.392Z,13.31
2023-04-15T19:28:50.021Z,13.38
2023-04-15T19:34:36.608Z,13.29
2023-04-15T19:40:23.211Z,13.21
2023-04-15T19:46:09.910Z,13.24
2023-04-15T19:51:56.556Z,13.19
2023-04-15T19:57:43.112Z,13.23
2023-04-15T20:03:29.964Z,13.13
2023-04-15T20:10:16.832Z,13.07
2023-04-15T20:16:35.020Z,13.17
2023-04-15T20:22:22.951Z,13.19
2023-04-15T20:35:07.467Z,12.77
2023-04-15T20:40:54.510Z,12.59
2023-04-15T20:46:50.913Z,12.80
2023-04-15T21:00:55.275Z,12.61
2023-04-15T21:06:42.692Z,12.58
2023-04-15T21:12:29.669Z,12.60
2023-04-15T21:18:20.860Z,12.62
2023-04-15T21:24:07.980Z,12.51
2023-04-15T21:30:08.767Z,12.54
2023-04-15T21:37:09.015Z,12.44
2023-04-15T21:42:58.316Z,12.15
2023-04-15T21:48:46.152Z,12.03
2023-04-15T21:54:37.682Z,11.95
2023-04-15T22:00:28.944Z,11.88
2023-04-15T22:21:30.915Z,11.63
2023-04-15T22:27:21.689Z,11.43
2023-04-15T22:33:17.768Z,11.43
2023-04-15T22:39:40.897Z,11.46
2023-04-15T22:53:17.285Z,11.45
2023-04-15T22:59:12.590Z,11.33
2023-04-15T23:04:59.306Z,11.26
2023-04-15T23:10:49.845Z,11.21
2023-04-15T23:16:39.981Z,11.23
2023-04-15T23:22:27.233Z,11.04
2023-04-15T23:28:22.075Z,11.09
2023-04-15T23:34:17.094Z,10.97
2023-04-15T23:40:10.050Z,10.87
2023-04-15T23:46:01.814Z,10.80
2023-04-15T23:51:55.751Z,10.82
2023-04-15T23:57:57.894Z,10.70
